Terminal Aerodrome Forecast
Issued by NWS

Home | Current Version | Previous Version | Text Only | Print | Product List | Glossary On
Versions: 1 2 3 4 5 6 7 8 9 10 11 12
000
FTUS46 KSGX 301700
TAFPSP
TAF
KPSP 301730Z 3018/3118 VRB06KT P6SM FEW200
     FM302300 32012G20KT P6SM FEW200
     FM310500 VRB05KT P6SM FEW200=

USA.gov is the U.S. government's official web portal to all federal, state and local government web resources and services.